Time;durP1;ratioP1;P1;durP2;ratioP2;P2;SDS_P1;SDS_P2;PMS_P1;PMS_P2;Temp;Humidity;BMP_temperature;BMP_pressure;BME280_temperature;BME280_humidity;BME280_pressure;Samples;Min_cycle;Max_cycle;Signal;HPM_P1;HPM_P2
2023/05/27 00:00:05;;;;;;;3.93;2.30;;;11.50;99.90;;;;;;5050908;28;20173;-87
2023/05/27 00:02:30;;;;;;;6.73;2.40;;;11.50;1.00;;;;;;5050531;28;20231;-86
2023/05/27 00:04:56;;;;;;;4.77;2.63;;;11.50;99.90;;;;;;5053059;28;20221;-87
2023/05/27 00:07:22;;;;;;;6.07;2.30;;;11.40;99.90;;;;;;5052848;28;20247;-86
2023/05/27 00:09:47;;;;;;;6.43;2.70;;;11.10;99.90;;;;;;5050905;28;20201;-84
2023/05/27 00:12:13;;;;;;;6.70;2.40;;;10.90;1.00;;;;;;5081460;23;20227;-86
2023/05/27 00:14:38;;;;;;;5.27;2.43;;;10.60;1.00;;;;;;5075149;28;20187;-86
2023/05/27 00:17:04;;;;;;;5.80;2.30;;;10.50;1.00;;;;;;5092765;28;20208;-86
2023/05/27 00:19:30;;;;;;;8.07;2.40;;;10.60;1.00;;;;;;5074706;28;20189;-84
2023/05/27 00:21:56;;;;;;;5.17;2.50;;;10.70;1.00;;;;;;5092177;28;20291;-86
2023/05/27 00:24:22;;;;;;;6.50;2.40;;;10.80;99.90;;;;;;5092638;28;20271;-86
2023/05/27 00:26:48;;;;;;;5.17;2.20;;;10.70;1.00;;;;;;5074955;28;20272;-85
2023/05/27 00:29:16;;;;;;;4.77;2.40;;;10.60;99.90;;;;;;5088705;28;20207;-85
2023/05/27 00:31:42;;;;;;;6.37;2.50;;;10.50;1.00;;;;;;5073417;28;20195;-86
2023/05/27 00:34:07;;;;;;;6.17;2.67;;;10.40;99.90;;;;;;5074181;28;20180;-86
2023/05/27 00:36:33;;;;;;;6.97;2.40;;;10.40;99.90;;;;;;5082994;28;20196;-85
2023/05/27 00:39:00;;;;;;;6.70;2.43;;;10.40;99.90;;;;;;5076018;28;20180;-86
2023/05/27 00:41:26;;;;;;;7.07;2.60;;;10.20;99.90;;;;;;5071183;28;20183;-84
2023/05/27 00:43:52;;;;;;;6.93;2.47;;;10.00;1.00;;;;;;5072101;28;20233;-85
2023/05/27 00:46:18;;;;;;;4.23;2.17;;;10.00;1.00;;;;;;5078703;28;20667;-85
2023/05/27 00:48:47;;;;;;;5.77;2.40;;;10.00;1.00;;;;;;5078392;28;20218;-85
2023/05/27 00:51:13;;;;;;;7.83;2.80;;;10.10;99.90;;;;;;5095318;28;20714;-83
2023/05/27 00:53:44;;;;;;;5.97;2.27;;;10.00;99.90;;;;;;5087303;28;20305;-85
2023/05/27 00:56:10;;;;;;;6.80;2.70;;;10.10;1.00;;;;;;5096319;28;20176;-85
2023/05/27 00:58:37;;;;;;;5.50;2.63;;;10.00;1.00;;;;;;5075143;28;20202;-85
2023/05/27 01:01:03;;;;;;;4.53;2.50;;;10.10;1.00;;;;;;5092216;28;20184;-85
2023/05/27 01:03:32;;;;;;;6.27;2.40;;;10.10;1.00;;;;;;5095047;28;20229;-85
2023/05/27 01:06:09;;;;;;;6.23;2.53;;;10.10;1.00;;;;;;5094265;28;20589;-85
2023/05/27 01:08:48;;;;;;;5.80;2.47;;;10.20;1.00;;;;;;5096201;28;20252;-87
2023/05/27 01:11:18;;;;;;;5.93;2.80;;;10.30;99.90;;;;;;5072676;28;20175;-87
2023/05/27 01:13:52;;;;;;;5.43;2.27;;;10.10;99.90;;;;;;5078811;28;20192;-87
2023/05/27 01:16:18;;;;;;;7.50;2.57;;;9.90;99.90;;;;;;5096281;28;20199;-88
2023/05/27 01:18:49;;;;;;;5.53;2.20;;;9.80;1.00;;;;;;5077574;28;20179;-87
2023/05/27 01:21:18;;;;;;;6.30;2.77;;;9.80;1.00;;;;;;5075814;28;20215;-86
2023/05/27 01:23:47;;;;;;;6.93;2.50;;;9.70;1.00;;;;;;5089252;28;20179;-87
2023/05/27 01:26:13;;;;;;;6.00;2.57;;;9.80;1.00;;;;;;5077970;28;20184;-87
2023/05/27 01:28:40;;;;;;;7.47;2.50;;;9.90;1.00;;;;;;5088935;28;20291;-87
2023/05/27 01:31:13;;;;;;;6.53;2.47;;;9.60;1.00;;;;;;5073792;28;20177;-84
2023/05/27 01:33:42;;;;;;;6.23;2.60;;;9.50;1.00;;;;;;5078108;28;20168;-85
2023/05/27 01:36:15;;;;;;;5.37;2.50;;;9.40;1.00;;;;;;5082479;28;20255;-84
2023/05/27 01:38:43;;;;;;;5.03;2.40;;;9.30;99.90;;;;;;5096506;28;20260;-84
2023/05/27 01:41:18;;;;;;;4.83;2.17;;;9.30;21.20;;;;;;5091508;28;20183;-85
2023/05/27 01:43:44;;;;;;;8.17;2.77;;;9.40;1.00;;;;;;5086973;28;20186;-84
2023/05/27 01:46:10;;;;;;;5.13;2.63;;;9.40;15.20;;;;;;5091699;28;20172;-84
2023/05/27 01:48:36;;;;;;;6.17;2.40;;;9.40;99.90;;;;;;5095991;28;20204;-85
2023/05/27 01:51:01;;;;;;;7.67;2.40;;;9.40;28.70;;;;;;5089598;28;20180;-85
2023/05/27 01:53:27;;;;;;;7.50;2.37;;;9.50;1.00;;;;;;5094504;28;20200;-85
2023/05/27 01:55:52;;;;;;;4.50;2.10;;;9.50;99.90;;;;;;5093885;28;20241;-85
2023/05/27 01:58:18;;;;;;;4.47;2.23;;;9.40;1.00;;;;;;5094034;28;20172;-83
2023/05/27 02:00:43;;;;;;;5.43;2.53;;;9.40;1.00;;;;;;5073492;28;20184;-85
2023/05/27 02:03:09;;;;;;;6.93;2.80;;;9.30;1.00;;;;;;5081860;28;20286;-85
2023/05/27 02:05:35;;;;;;;5.40;2.47;;;9.30;1.00;;;;;;5095571;28;20190;-85
2023/05/27 02:08:01;;;;;;;4.80;2.03;;;9.20;1.00;;;;;;5073435;28;20218;-85
2023/05/27 02:10:28;;;;;;;8.90;2.50;;;9.10;1.00;;;;;;5094769;28;20214;-84
2023/05/27 02:12:54;;;;;;;3.90;2.40;;;9.10;99.90;;;;;;5077523;28;20269;-83
2023/05/27 02:15:23;;;;;;;6.03;2.50;;;8.80;1.00;;;;;;5094599;28;20558;-84
2023/05/27 02:17:54;;;;;;;6.43;2.30;;;8.60;99.90;;;;;;5075756;28;20638;-84
2023/05/27 02:20:23;;;;;;;7.20;2.80;;;8.50;1.00;;;;;;5074066;28;20204;-84
2023/05/27 02:22:52;;;;;;;5.63;2.70;;;8.40;99.90;;;;;;5077177;28;20237;-85
2023/05/27 02:25:17;;;;;;;7.40;2.80;;;8.60;99.90;;;;;;5095277;28;20182;-84
2023/05/27 02:27:47;;;;;;;8.23;2.80;;;8.80;99.90;;;;;;5070765;28;20186;-84
2023/05/27 02:30:13;;;;;;;7.87;3.27;;;8.80;1.00;;;;;;5092735;28;20217;-83
2023/05/27 02:32:38;;;;;;;8.27;3.07;;;8.90;1.00;;;;;;5078241;28;20741;-84
2023/05/27 02:35:04;;;;;;;7.00;2.70;;;9.00;1.00;;;;;;5077950;28;20259;-84
2023/05/27 02:37:30;;;;;;;9.63;3.10;;;9.10;1.00;;;;;;5072972;28;20171;-84
2023/05/27 02:39:56;;;;;;;7.93;2.50;;;9.20;99.90;;;;;;5076401;28;20563;-84
2023/05/27 02:42:21;;;;;;;4.93;2.70;;;9.00;43.00;;;;;;5076520;28;20206;-84
2023/05/27 02:44:47;;;;;;;6.57;2.83;;;9.00;1.00;;;;;;5092532;28;20199;-84
2023/05/27 02:47:12;;;;;;;5.93;2.60;;;9.00;99.90;;;;;;5076884;28;20184;-84
2023/05/27 02:49:38;;;;;;;5.60;2.60;;;9.10;1.00;;;;;;5094228;28;20223;-85
2023/05/27 02:52:04;;;;;;;5.03;2.40;;;9.20;1.00;;;;;;5076511;28;20210;-85
2023/05/27 02:54:30;;;;;;;8.77;2.87;;;9.10;99.90;;;;;;5076352;28;20211;-85
2023/05/27 02:56:55;;;;;;;6.67;2.60;;;9.10;1.00;;;;;;5076573;28;20182;-85
2023/05/27 02:59:21;;;;;;;5.67;2.47;;;9.10;99.90;;;;;;5085194;28;20184;-85
2023/05/27 03:01:46;;;;;;;4.53;2.60;;;9.20;99.90;;;;;;5076113;28;20203;-85
2023/05/27 03:04:12;;;;;;;6.83;2.50;;;9.30;1.00;;;;;;5070306;28;20194;-84
2023/05/27 03:06:37;;;;;;;6.80;2.50;;;9.30;1.00;;;;;;5056616;28;20202;-85
2023/05/27 03:09:04;;;;;;;5.17;2.40;;;9.20;99.90;;;;;;5078711;28;20204;-85
2023/05/27 03:11:29;;;;;;;6.77;2.67;;;9.20;1.00;;;;;;5084160;28;20203;-84
2023/05/27 03:13:55;;;;;;;5.20;2.63;;;9.00;1.00;;;;;;5094703;28;20172;-84
2023/05/27 03:16:22;;;;;;;4.40;2.23;;;8.70;99.90;;;;;;5074856;28;20178;-85
2023/05/27 03:18:48;;;;;;;5.70;2.43;;;8.70;1.00;;;;;;5094243;28;20182;-84
2023/05/27 03:21:14;;;;;;;4.57;2.50;;;8.80;1.00;;;;;;5086538;28;20196;-83
2023/05/27 03:23:39;;;;;;;6.30;2.80;;;8.80;99.90;;;;;;5082788;28;20221;-85
2023/05/27 03:26:05;;;;;;;6.80;2.70;;;8.80;1.00;;;;;;5094256;28;20179;-84
2023/05/27 03:28:31;;;;;;;6.20;2.67;;;8.60;99.90;;;;;;5075963;28;20199;-85
2023/05/27 03:30:56;;;;;;;6.43;2.60;;;8.60;1.00;;;;;;5071874;28;20665;-84
2023/05/27 03:33:23;;;;;;;8.63;2.90;;;8.60;1.00;;;;;;5076026;28;20264;-85
2023/05/27 03:35:49;;;;;;;5.97;2.73;;;8.50;1.00;;;;;;5094306;28;20533;-84
2023/05/27 03:38:15;;;;;;;7.90;2.93;;;8.50;1.00;;;;;;5092808;28;20261;-84
2023/05/27 03:40:40;;;;;;;8.27;2.90;;;8.40;1.00;;;;;;5088016;28;20249;-84
2023/05/27 03:43:06;;;;;;;10.17;3.03;;;8.30;1.00;;;;;;5076173;28;20190;-84
2023/05/27 03:45:31;;;;;;;8.63;3.03;;;8.40;1.00;;;;;;5076446;28;20407;-84
2023/05/27 03:47:57;;;;;;;9.13;3.03;;;8.50;99.90;;;;;;5071331;28;20171;-84
2023/05/27 03:50:23;;;;;;;8.40;2.77;;;8.60;1.00;;;;;;5090765;28;20249;-84
2023/05/27 03:52:48;;;;;;;9.53;3.03;;;8.60;99.90;;;;;;5075963;28;20525;-84
2023/05/27 03:55:16;;;;;;;6.37;3.03;;;8.50;1.00;;;;;;5075756;28;20222;-84
2023/05/27 03:57:42;;;;;;;6.53;2.90;;;8.50;99.90;;;;;;5075889;28;20178;-84
2023/05/27 04:00:11;;;;;;;10.53;3.20;;;8.40;99.90;;;;;;5078697;28;20207;-84
2023/05/27 04:02:36;;;;;;;7.33;3.37;;;8.40;1.00;;;;;;5075193;28;20204;-84
2023/05/27 04:05:03;;;;;;;7.53;2.90;;;8.30;99.90;;;;;;5075323;28;20180;-84
2023/05/27 04:07:28;;;;;;;4.67;2.80;;;8.20;1.00;;;;;;5073828;28;20209;-84
2023/05/27 04:09:54;;;;;;;7.63;2.90;;;8.20;99.90;;;;;;5087390;28;20264;-83
2023/05/27 04:12:20;;;;;;;8.03;3.20;;;8.10;99.90;;;;;;5093758;28;20204;-84
2023/05/27 04:14:46;;;;;;;7.40;3.00;;;8.20;99.90;;;;;;5092435;28;20172;-84
2023/05/27 04:17:13;;;;;;;10.33;3.63;;;8.30;76.10;;;;;;5087756;28;20176;-84
2023/05/27 04:19:39;;;;;;;7.73;3.10;;;8.40;1.00;;;;;;5091944;28;20187;-81
2023/05/27 04:22:04;;;;;;;6.10;3.00;;;8.50;99.90;;;;;;5100113;28;20192;-84
2023/05/27 04:24:30;;;;;;;9.10;3.00;;;8.40;99.90;;;;;;5095360;28;20164;-84
2023/05/27 04:26:56;;;;;;;5.53;2.70;;;8.50;1.00;;;;;;5075960;28;20184;-84
2023/05/27 04:29:22;;;;;;;7.00;2.80;;;8.50;99.90;;;;;;5075798;28;20200;-84
2023/05/27 04:31:48;;;;;;;8.47;2.93;;;8.60;99.90;;;;;;5081469;28;20244;-84
2023/05/27 04:34:14;;;;;;;7.97;3.40;;;8.50;99.90;;;;;;5074653;28;20271;-84
2023/05/27 04:36:39;;;;;;;8.20;3.10;;;8.60;1.00;;;;;;5057751;28;20169;-84
2023/05/27 04:39:05;;;;;;;9.63;3.13;;;8.70;1.00;;;;;;5092860;28;20255;-85
2023/05/27 04:41:32;;;;;;;6.23;3.00;;;8.70;99.90;;;;;;5092830;28;20332;-83
2023/05/27 04:44:00;;;;;;;8.63;3.00;;;8.70;99.90;;;;;;5076855;28;20175;-81
2023/05/27 04:46:26;;;;;;;6.70;3.20;;;8.80;99.90;;;;;;5079551;28;20177;-81
2023/05/27 04:48:53;;;;;;;6.97;3.33;;;8.90;99.90;;;;;;5075259;28;20264;-81
2023/05/27 04:51:19;;;;;;;8.93;3.03;;;8.90;1.00;;;;;;5080112;28;20647;-79
2023/05/27 04:53:47;;;;;;;10.37;3.20;;;9.00;1.00;;;;;;5099175;28;20169;-82
2023/05/27 04:56:14;;;;;;;11.40;3.83;;;9.10;1.00;;;;;;5079788;28;20183;-81
2023/05/27 04:58:42;;;;;;;9.90;3.33;;;9.20;99.90;;;;;;5096131;28;20177;-80
2023/05/27 05:01:16;;;;;;;8.20;3.80;;;9.20;99.90;;;;;;5083331;28;20694;-82
2023/05/27 05:03:51;;;;;;;8.47;3.63;;;9.20;99.90;;;;;;5091796;28;20180;-81
2023/05/27 05:06:20;;;;;;;8.63;3.47;;;9.30;99.90;;;;;;5095152;28;20244;-84
2023/05/27 05:08:47;;;;;;;12.87;3.27;;;9.40;99.90;;;;;;5094095;28;20248;-85
2023/05/27 05:11:14;;;;;;;8.50;3.43;;;9.50;72.40;;;;;;5093183;28;20180;-78
2023/05/27 05:13:40;;;;;;;7.40;3.00;;;9.50;99.90;;;;;;5079228;28;20183;-84
2023/05/27 05:16:05;;;;;;;9.63;3.40;;;9.60;99.90;;;;;;5077682;28;20178;-85
2023/05/27 05:18:31;;;;;;;5.97;2.90;;;9.60;1.00;;;;;;5073567;28;20179;-83
2023/05/27 05:20:57;;;;;;;6.80;2.97;;;9.70;99.90;;;;;;5076501;28;20256;-84
2023/05/27 05:23:22;;;;;;;11.70;3.40;;;9.70;5.80;;;;;;5089912;28;20196;-85
2023/05/27 05:25:54;;;;;;;5.73;3.00;;;9.70;1.00;;;;;;5061751;28;20179;-83
2023/05/27 05:28:20;;;;;;;10.30;3.70;;;9.80;99.90;;;;;;5083256;28;20187;-84
2023/05/27 05:30:45;;;;;;;8.53;3.40;;;9.90;1.00;;;;;;5091922;28;20184;-81
2023/05/27 05:33:11;;;;;;;7.13;3.07;;;10.00;1.00;;;;;;5089588;28;20207;-82
2023/05/27 05:35:36;;;;;;;10.73;3.30;;;10.10;99.90;;;;;;5100878;28;20181;-81
2023/05/27 05:38:02;;;;;;;7.47;2.97;;;10.20;1.00;;;;;;5074984;28;20212;-83
2023/05/27 05:40:27;;;;;;;4.50;3.00;;;10.20;99.90;;;;;;5081888;28;20183;-82
2023/05/27 05:42:53;;;;;;;10.87;3.73;;;10.40;1.00;;;;;;5079773;28;20741;-81
2023/05/27 05:45:19;;;;;;;8.53;3.13;;;10.40;99.90;;;;;;5082011;28;20190;-83
2023/05/27 05:47:44;;;;;;;9.13;3.27;;;10.50;99.90;;;;;;5082689;28;20663;-85
2023/05/27 05:50:10;;;;;;;8.43;3.33;;;10.50;99.90;;;;;;5101026;28;20204;-83
2023/05/27 05:52:35;;;;;;;8.33;3.33;;;10.60;1.00;;;;;;5082502;28;20684;-83
2023/05/27 05:55:01;;;;;;;7.13;3.23;;;10.70;99.90;;;;;;5082874;28;20217;-84
2023/05/27 05:57:31;;;;;;;8.13;3.20;;;10.80;1.00;;;;;;5084218;28;20186;-85
2023/05/27 05:59:57;;;;;;;8.10;3.50;;;10.80;1.00;;;;;;5085248;28;20173;-80
2023/05/27 06:02:22;;;;;;;7.70;3.00;;;10.90;99.90;;;;;;5078689;28;20232;-86
2023/05/27 06:04:48;;;;;;;7.23;3.07;;;10.90;99.90;;;;;;5090623;28;20646;-83
2023/05/27 06:07:14;;;;;;;10.53;3.80;;;11.00;99.90;;;;;;5086490;28;20192;-84
2023/05/27 06:09:39;;;;;;;8.90;3.10;;;11.10;99.90;;;;;;5083793;28;20607;-83
2023/05/27 06:12:06;;;;;;;7.53;3.23;;;11.20;1.00;;;;;;5079632;28;20239;-85
2023/05/27 06:14:32;;;;;;;13.07;3.63;;;11.30;1.00;;;;;;5081221;28;20593;-85
2023/05/27 06:16:57;;;;;;;9.47;4.10;;;11.40;1.00;;;;;;5095604;28;20181;-85
2023/05/27 06:19:23;;;;;;;10.70;3.80;;;11.40;99.90;;;;;;5092049;22;20220;-83
2023/05/27 06:21:48;;;;;;;7.40;3.00;;;11.50;1.00;;;;;;5067984;28;20178;-83
2023/05/27 06:24:15;;;;;;;8.43;3.37;;;11.60;1.00;;;;;;5049595;28;20181;-85
2023/05/27 06:26:40;;;;;;;9.87;3.57;;;11.80;99.90;;;;;;5067546;28;20543;-84
2023/05/27 06:29:06;;;;;;;6.07;3.20;;;11.90;99.90;;;;;;5067540;28;20212;-84
2023/05/27 06:31:33;;;;;;;9.17;3.20;;;12.00;1.00;;;;;;5068659;28;20200;-81
2023/05/27 06:33:58;;;;;;;7.80;3.30;;;12.10;32.20;;;;;;5073758;28;20169;-83
2023/05/27 06:36:24;;;;;;;8.37;3.40;;;12.20;99.90;;;;;;5065757;28;20177;-82
2023/05/27 06:38:50;;;;;;;9.23;3.50;;;12.30;1.00;;;;;;5054517;28;20186;-82
2023/05/27 06:41:16;;;;;;;8.93;3.57;;;12.50;1.00;;;;;;5072377;28;20191;-82
2023/05/27 06:43:42;;;;;;;11.17;3.70;;;12.60;99.90;;;;;;5049931;28;20268;-82
2023/05/27 06:46:07;;;;;;;8.30;3.40;;;12.70;99.90;;;;;;5068271;28;20190;-83
2023/05/27 06:48:33;;;;;;;10.23;3.27;;;12.80;99.90;;;;;;5061465;28;20173;-84
2023/05/27 06:50:59;;;;;;;7.83;3.13;;;12.90;99.90;;;;;;5051742;28;20197;-82
2023/05/27 06:53:25;;;;;;;7.67;3.60;;;13.10;1.00;;;;;;5073966;28;20197;-81
2023/05/27 06:55:51;;;;;;;10.53;3.73;;;13.30;80.00;;;;;;5075318;28;20184;-82
2023/05/27 06:58:16;;;;;;;8.03;3.50;;;13.40;1.00;;;;;;5052825;28;20185;-81
2023/05/27 07:00:42;;;;;;;8.07;3.33;;;13.50;1.00;;;;;;5072824;28;20239;-81
2023/05/27 07:03:08;;;;;;;8.97;3.57;;;13.60;1.00;;;;;;5073732;28;20177;-82
2023/05/27 07:05:33;;;;;;;5.27;3.13;;;13.70;99.90;;;;;;5067015;28;20187;-82
2023/05/27 07:07:59;;;;;;;10.03;3.53;;;13.70;1.00;;;;;;5051702;28;20648;-81
2023/05/27 07:10:24;;;;;;;8.53;3.30;;;13.70;1.00;;;;;;5066336;28;20250;-79
2023/05/27 07:12:50;;;;;;;6.60;3.23;;;13.80;99.90;;;;;;5049432;28;20165;-81
2023/05/27 07:15:16;;;;;;;11.23;3.50;;;13.90;99.90;;;;;;5049229;28;20180;-79
2023/05/27 07:17:41;;;;;;;8.67;3.00;;;14.10;99.90;;;;;;5049884;28;20215;-81
2023/05/27 07:20:07;;;;;;;7.13;3.30;;;14.40;99.90;;;;;;5054679;28;20213;-82
2023/05/27 07:22:33;;;;;;;5.30;2.70;;;14.60;1.00;;;;;;5050242;28;20181;-82
2023/05/27 07:24:59;;;;;;;8.90;3.37;;;14.70;1.00;;;;;;5054679;28;20180;-82
2023/05/27 07:27:24;;;;;;;10.83;3.70;;;14.90;1.00;;;;;;5074185;28;20567;-80
2023/05/27 07:29:50;;;;;;;7.30;3.30;;;15.00;1.00;;;;;;5073473;28;20208;-83
2023/05/27 07:32:16;;;;;;;9.20;3.07;;;15.20;1.00;;;;;;5056305;28;20647;-83
2023/05/27 07:34:41;;;;;;;8.23;3.00;;;15.20;1.00;;;;;;5056142;28;20557;-83
2023/05/27 07:37:07;;;;;;;7.87;2.93;;;15.30;1.00;;;;;;5056951;28;20181;-82
2023/05/27 07:39:32;;;;;;;9.67;3.30;;;15.30;1.00;;;;;;5056606;28;20197;-81
2023/05/27 07:41:58;;;;;;;6.93;3.00;;;15.50;1.00;;;;;;5073855;28;20215;-82
2023/05/27 07:44:24;;;;;;;7.17;3.00;;;15.50;99.90;;;;;;5074168;28;20168;-82
2023/05/27 07:46:49;;;;;;;7.73;3.60;;;15.70;99.90;;;;;;5056550;28;20191;-82
2023/05/27 07:49:15;;;;;;;10.67;3.20;;;15.80;99.90;;;;;;5074028;28;20216;-82
2023/05/27 07:51:41;;;;;;;6.80;2.87;;;16.00;99.90;;;;;;5073671;28;20299;-81
2023/05/27 07:54:06;;;;;;;6.57;3.10;;;16.20;99.90;;;;;;5055969;28;20188;-82
2023/05/27 07:56:34;;;;;;;7.93;3.33;;;16.30;44.80;;;;;;5049730;28;20177;-82
2023/05/27 07:58:59;;;;;;;5.83;2.90;;;16.30;1.00;;;;;;5049239;28;20201;-82
2023/05/27 08:01:30;;;;;;;7.07;2.80;;;16.30;1.00;;;;;;5063465;28;20201;-81
2023/05/27 08:03:56;;;;;;;6.83;3.13;;;16.50;1.00;;;;;;5047411;28;20165;-80
2023/05/27 08:06:21;;;;;;;8.10;2.97;;;16.50;1.00;;;;;;5048845;28;20287;-81
2023/05/27 08:08:47;;;;;;;7.30;3.23;;;16.60;81.50;;;;;;5062939;28;20208;-82
2023/05/27 08:11:13;;;;;;;9.37;3.10;;;16.60;1.00;;;;;;5047013;28;20554;-80
2023/05/27 08:13:39;;;;;;;10.87;3.00;;;16.70;1.00;;;;;;5065518;28;20651;-81
2023/05/27 08:16:06;;;;;;;5.70;2.90;;;16.70;1.00;;;;;;5074466;28;20256;-82
2023/05/27 08:18:32;;;;;;;8.37;3.13;;;16.90;1.00;;;;;;5054908;28;20177;-81
2023/05/27 08:20:57;;;;;;;7.43;3.10;;;16.90;1.00;;;;;;5056718;28;20257;-81
2023/05/27 08:23:23;;;;;;;7.23;3.17;;;17.10;1.00;;;;;;5071721;28;20612;-82
2023/05/27 08:25:48;;;;;;;8.80;3.40;;;17.30;1.00;;;;;;5068289;28;20185;-82
2023/05/27 08:28:14;;;;;;;7.97;3.30;;;17.50;1.00;;;;;;5077758;28;20180;-81
2023/05/27 08:30:40;;;;;;;6.53;3.00;;;17.60;1.00;;;;;;5074948;28;20206;-82
2023/05/27 08:33:06;;;;;;;9.40;3.00;;;17.80;99.90;;;;;;5079143;28;20186;-80
2023/05/27 08:35:31;;;;;;;6.87;3.00;;;17.90;99.90;;;;;;5056197;28;20678;-82
2023/05/27 08:37:57;;;;;;;7.77;3.00;;;18.00;99.90;;;;;;5050744;28;20181;-82
2023/05/27 08:40:22;;;;;;;8.93;3.27;;;17.90;99.90;;;;;;5050226;28;20200;-80
2023/05/27 08:42:48;;;;;;;7.90;3.33;;;18.00;99.90;;;;;;5070564;28;20680;-81
2023/05/27 08:45:14;;;;;;;5.87;3.10;;;18.00;99.90;;;;;;5055538;28;20334;-82
2023/05/27 08:47:40;;;;;;;6.87;2.90;;;18.20;99.90;;;;;;5051287;28;20208;-82
2023/05/27 08:50:07;;;;;;;7.40;2.97;;;18.10;99.90;;;;;;5066658;28;20668;-84
2023/05/27 08:52:33;;;;;;;7.40;2.77;;;18.30;99.90;;;;;;5065747;28;20174;-81
2023/05/27 08:55:00;;;;;;;6.87;2.70;;;18.40;99.90;;;;;;5071411;28;20177;-79
2023/05/27 08:57:31;;;;;;;7.03;3.27;;;18.50;94.10;;;;;;5076128;28;20177;-82
2023/05/27 08:59:57;;;;;;;8.40;2.80;;;18.70;99.90;;;;;;5055636;28;20254;-82
2023/05/27 09:02:24;;;;;;;6.87;2.90;;;18.80;20.50;;;;;;5074091;28;20173;-82
2023/05/27 09:04:49;;;;;;;6.93;2.90;;;18.80;1.00;;;;;;5081943;28;20533;-83
2023/05/27 09:07:15;;;;;;;6.97;2.90;;;19.00;1.00;;;;;;5058695;28;20233;-82
2023/05/27 09:09:41;;;;;;;5.70;2.97;;;19.00;1.00;;;;;;5076515;28;20793;-80
2023/05/27 09:12:10;;;;;;;7.50;2.70;;;19.10;1.00;;;;;;5069520;28;20177;-82
2023/05/27 09:14:39;;;;;;;5.97;2.40;;;19.30;1.00;;;;;;5089887;28;20221;-81
2023/05/27 09:17:06;;;;;;;8.20;3.10;;;19.50;1.00;;;;;;5078752;28;20185;-81
2023/05/27 09:19:31;;;;;;;5.27;2.60;;;19.70;1.00;;;;;;5059838;28;20216;-81
2023/05/27 09:21:57;;;;;;;7.47;3.00;;;19.70;1.00;;;;;;5059604;28;20177;-82
2023/05/27 09:24:24;;;;;;;5.90;2.80;;;19.80;1.00;;;;;;5077723;28;20176;-81
2023/05/27 09:26:54;;;;;;;7.37;2.70;;;19.90;1.00;;;;;;5077185;28;20782;-79
2023/05/27 09:29:20;;;;;;;6.10;2.80;;;20.10;1.00;;;;;;5067556;28;20755;-80
2023/05/27 09:31:46;;;;;;;7.27;2.67;;;20.40;1.00;;;;;;5058861;28;20174;-82
2023/05/27 09:34:13;;;;;;;5.30;3.00;;;20.60;1.00;;;;;;5076937;28;20165;-80
2023/05/27 09:36:47;;;;;;;8.87;3.33;;;20.80;1.00;;;;;;5076497;28;20241;-80
2023/05/27 09:39:13;;;;;;;6.90;2.97;;;20.90;1.00;;;;;;5077501;28;20287;-80
2023/05/27 09:41:40;;;;;;;6.18;2.83;;;20.80;1.00;;;;;;5080403;28;20184;-81
2023/05/27 09:44:06;;;;;;;7.67;3.17;;;20.90;1.00;;;;;;5058008;28;20195;-82
2023/05/27 09:46:33;;;;;;;7.82;2.80;;;20.80;1.00;;;;;;5078601;28;20181;-82
2023/05/27 09:49:00;;;;;;;4.65;2.40;;;20.80;1.00;;;;;;5075765;28;20205;-81
2023/05/27 09:51:28;;;;;;;4.88;2.65;;;21.10;1.00;;;;;;5080361;28;20175;-83
2023/05/27 09:53:56;;;;;;;7.07;2.90;;;21.30;1.00;;;;;;5068327;28;20161;-79
2023/05/27 09:56:26;;;;;;;6.15;3.00;;;21.50;1.00;;;;;;5062830;28;20259;-88
2023/05/27 09:58:58;;;;;;;6.05;2.72;;;21.70;1.00;;;;;;5061575;28;20177;-81
2023/05/27 10:01:29;;;;;;;6.32;2.72;;;21.80;1.00;;;;;;5056587;28;20183;-81
2023/05/27 10:03:58;;;;;;;6.15;2.60;;;21.80;1.00;;;;;;5076719;28;20176;-81
2023/05/27 10:06:25;;;;;;;5.90;2.78;;;21.70;1.00;;;;;;5078477;28;20177;-82
2023/05/27 10:08:58;;;;;;;5.32;2.78;;;22.00;1.00;;;;;;5058432;28;20196;-80
2023/05/27 10:11:26;;;;;;;7.25;2.70;;;22.10;1.00;;;;;;5090315;28;20559;-81
2023/05/27 10:13:52;;;;;;;5.10;2.80;;;21.90;1.00;;;;;;5083257;28;20307;-84
2023/05/27 10:16:27;;;;;;;5.28;2.60;;;22.00;1.00;;;;;;5077321;28;20275;-87
2023/05/27 10:18:54;;;;;;;5.03;2.63;;;22.30;1.00;;;;;;5074455;28;20175;-85
2023/05/27 10:21:22;;;;;;;5.60;2.60;;;22.40;1.00;;;;;;5074032;28;20769;-87
2023/05/27 10:23:58;;;;;;;4.57;2.22;;;22.60;1.00;;;;;;5074224;28;20179;-88
2023/05/27 10:26:40;;;;;;;6.63;2.70;;;22.80;1.00;;;;;;5078895;28;20682;-87
2023/05/27 10:29:10;;;;;;;5.55;2.40;;;22.60;1.00;;;;;;5068206;28;20205;-85
2023/05/27 10:31:43;;;;;;;6.82;2.58;;;22.70;1.00;;;;;;5069647;28;20176;-87
2023/05/27 10:34:08;;;;;;;6.28;2.78;;;23.00;1.00;;;;;;5077133;28;20173;-82
2023/05/27 10:36:36;;;;;;;6.07;3.05;;;23.00;1.00;;;;;;5064485;28;20169;-83
2023/05/27 10:39:11;;;;;;;7.50;2.60;;;22.80;99.90;;;;;;5058544;28;20189;-83
2023/05/27 10:42:03;;;;;;;4.05;2.28;;;22.90;99.90;;;;;;5084271;28;20189;-84
2023/05/27 10:44:34;;;;;;;6.10;2.40;;;23.00;99.90;;;;;;5062670;28;20189;-82
2023/05/27 10:47:15;;;;;;;4.65;2.67;;;23.10;99.90;;;;;;5059703;28;20180;-81
2023/05/27 10:49:46;;;;;;;6.18;2.90;;;22.80;99.90;;;;;;5075676;28;20208;-82
2023/05/27 10:52:13;;;;;;;5.38;2.38;;;22.90;99.90;;;;;;5056392;28;20172;-83
2023/05/27 10:54:52;;;;;;;4.40;2.47;;;23.10;99.90;;;;;;5054044;28;20183;-82
2023/05/27 10:57:18;;;;;;;4.15;2.50;;;23.20;99.90;;;;;;5069783;28;20169;-82
2023/05/27 10:59:52;;;;;;;4.57;2.85;;;23.20;99.90;;;;;;5048460;28;20567;-83
2023/05/27 11:02:19;;;;;;;6.20;2.63;;;23.50;99.90;;;;;;5073792;28;20189;-84
2023/05/27 11:04:45;;;;;;;4.45;2.40;;;23.60;99.90;;;;;;5073541;28;20234;-87
2023/05/27 11:07:11;;;;;;;5.80;2.90;;;24.00;99.90;;;;;;5073060;28;20644;-86
2023/05/27 11:09:47;;;;;;;4.60;2.50;;;24.10;99.90;;;;;;5073572;28;20221;-85
2023/05/27 11:12:16;;;;;;;4.50;2.45;;;23.90;99.90;;;;;;5071351;28;20225;-83
2023/05/27 11:14:43;;;;;;;5.18;2.55;;;23.90;99.90;;;;;;5073624;28;20666;-83
2023/05/27 11:17:12;;;;;;;6.15;2.65;;;24.00;99.90;;;;;;5055725;28;20173;-86
2023/05/27 11:19:41;;;;;;;4.60;2.47;;;24.10;99.90;;;;;;5055558;28;20219;-84
2023/05/27 11:22:10;;;;;;;3.22;2.35;;;24.40;99.90;;;;;;5053175;28;20246;-82
2023/05/27 11:24:36;;;;;;;6.05;2.83;;;24.80;99.90;;;;;;5042939;28;20184;-82
2023/05/27 11:27:15;;;;;;;5.47;2.55;;;25.10;99.90;;;;;;5075203;28;20189;-80
2023/05/27 11:29:51;;;;;;;4.65;2.55;;;25.30;99.90;;;;;;5068641;28;20204;-82
2023/05/27 11:32:17;;;;;;;5.63;2.78;;;25.00;99.90;;;;;;5078814;28;20671;-80
2023/05/27 11:34:46;;;;;;;4.97;2.80;;;25.00;99.90;;;;;;5074524;28;20264;-82
2023/05/27 11:37:13;;;;;;;5.90;2.50;;;25.00;99.90;;;;;;5063981;28;20218;-82
2023/05/27 11:39:52;;;;;;;3.78;2.20;;;25.30;99.90;;;;;;5088886;28;20197;-81
2023/05/27 11:42:22;;;;;;;6.03;2.63;;;25.30;99.90;;;;;;5073945;28;20177;-82
2023/05/27 11:44:54;;;;;;;4.97;2.90;;;25.50;99.90;;;;;;5055494;28;20724;-82
2023/05/27 11:47:21;;;;;;;4.70;2.47;;;25.40;99.90;;;;;;5056447;28;20223;-82
2023/05/27 11:49:49;;;;;;;5.13;2.60;;;25.40;99.90;;;;;;5062439;28;20208;-82
2023/05/27 11:52:14;;;;;;;3.45;2.47;;;25.30;99.90;;;;;;5055803;28;20236;-81
2023/05/27 11:54:40;;;;;;;4.40;2.58;;;25.30;99.90;;;;;;5056188;28;20268;-82
2023/05/27 11:57:07;;;;;;;3.88;2.42;;;25.30;99.90;;;;;;5073144;28;20175;-82
2023/05/27 11:59:34;;;;;;;3.58;2.10;;;25.20;99.90;;;;;;5073553;28;20196;-81
2023/05/27 12:02:00;;;;;;;4.85;2.70;;;24.80;99.90;;;;;;5076773;28;20180;-81
2023/05/27 12:04:25;;;;;;;6.03;2.40;;;25.00;99.90;;;;;;5070673;28;20233;-81
2023/05/27 12:06:51;;;;;;;5.28;2.60;;;25.00;99.90;;;;;;5063401;28;20177;-80
2023/05/27 12:09:16;;;;;;;4.53;2.50;;;25.30;99.90;;;;;;5072789;28;20246;-82
2023/05/27 12:11:42;;;;;;;4.28;2.50;;;25.50;99.90;;;;;;5051385;28;20166;-82
2023/05/27 12:14:08;;;;;;;6.57;2.75;;;25.90;99.90;;;;;;5055463;28;20173;-81
2023/05/27 12:16:33;;;;;;;4.55;2.90;;;26.00;99.90;;;;;;5073604;28;20165;-82
2023/05/27 12:18:59;;;;;;;5.25;2.63;;;26.00;99.90;;;;;;5059598;28;20199;-81
2023/05/27 12:21:25;;;;;;;5.60;2.47;;;25.90;99.90;;;;;;5099755;22;20349;-83
2023/05/27 12:23:51;;;;;;;4.43;2.28;;;25.90;99.90;;;;;;5076713;28;20208;-83
2023/05/27 12:26:18;;;;;;;4.05;2.50;;;25.60;99.90;;;;;;5054562;28;20647;-83
2023/05/27 12:28:43;;;;;;;5.85;2.92;;;25.60;99.90;;;;;;5060403;28;20181;-83
2023/05/27 12:31:09;;;;;;;5.15;2.78;;;25.30;99.90;;;;;;5054920;28;20201;-83
2023/05/27 12:33:35;;;;;;;7.38;2.63;;;25.60;99.90;;;;;;5074219;28;20173;-83
2023/05/27 12:36:02;;;;;;;4.60;2.70;;;25.80;99.90;;;;;;5069655;28;20180;-82
2023/05/27 12:38:27;;;;;;;5.70;2.97;;;25.90;99.90;;;;;;5054562;28;20205;-83
2023/05/27 12:40:55;;;;;;;5.05;2.95;;;26.10;99.90;;;;;;5053825;28;20271;-83
2023/05/27 12:43:21;;;;;;;6.20;2.83;;;25.90;99.90;;;;;;5054505;28;20173;-83
2023/05/27 12:45:47;;;;;;;3.70;2.50;;;25.90;99.90;;;;;;5072632;28;20184;-84
2023/05/27 12:48:13;;;;;;;3.47;2.40;;;26.00;99.90;;;;;;5073056;28;20192;-84
2023/05/27 12:50:39;;;;;;;4.78;3.08;;;26.20;99.90;;;;;;5066374;28;20238;-84
2023/05/27 12:53:04;;;;;;;4.75;2.92;;;25.60;99.90;;;;;;5047856;28;20566;-84